Mount Selman, Texas
Current Conditions -  °F | °C
As of 9:53 AM on Friday 28 Nov 2014 (Local Time) from KTYR Reporting Station
Clear Clear  
Wind Chill: 54°   Ceiling: Unl
Heat Index: 54°   Visibility: 10mi
Dew Point: 38°   Wind: 12mph
Humidity: 55%   Direction: 190°S
Pressure: 30.31"   Gusts: NA
Location:  32.1219°N, 95.3574°W
Report Text: KTYR 281553Z 19010KT 10SM CLR 12/03 A3031 RMK AO2 SLP261 T01220033
Loading
Personal Weather Stations






























Interactive Weather Map New forecast layout! Learn more

10-Day Weather Forecast

Advertisements
Track Severe Weather on mobile